sensor_id;sensor_type;location;lat;lon;timestamp;temperature;humidity
20714;DHT22;10518;50.742;4.226;2023-08-01T00:00:24;18.50;99.90
20714;DHT22;10518;50.742;4.226;2023-08-01T00:02:50;18.50;99.90
20714;DHT22;10518;50.742;4.226;2023-08-01T00:05:16;18.50;99.90
20714;DHT22;10518;50.742;4.226;2023-08-01T00:07:41;18.50;99.90
20714;DHT22;10518;50.742;4.226;2023-08-01T00:10:07;18.50;99.90
20714;DHT22;10518;50.742;4.226;2023-08-01T00:12:33;18.40;99.90
20714;DHT22;10518;50.742;4.226;2023-08-01T00:14:58;18.40;99.90
20714;DHT22;10518;50.742;4.226;2023-08-01T00:17:24;18.30;99.90
20714;DHT22;10518;50.742;4.226;2023-08-01T00:19:49;18.30;99.90
20714;DHT22;10518;50.742;4.226;2023-08-01T00:22:15;18.30;99.90
20714;DHT22;10518;50.742;4.226;2023-08-01T00:24:40;18.30;99.90
20714;DHT22;10518;50.742;4.226;2023-08-01T00:27:06;18.30;99.90
20714;DHT22;10518;50.742;4.226;2023-08-01T00:29:34;18.30;99.90
20714;DHT22;10518;50.742;4.226;2023-08-01T00:32:00;18.20;99.90
20714;DHT22;10518;50.742;4.226;2023-08-01T00:34:25;18.30;99.90
20714;DHT22;10518;50.742;4.226;2023-08-01T00:36:51;18.30;99.90
20714;DHT22;10518;50.742;4.226;2023-08-01T00:39:16;18.40;99.90
20714;DHT22;10518;50.742;4.226;2023-08-01T00:41:42;18.40;99.90
20714;DHT22;10518;50.742;4.226;2023-08-01T00:44:07;18.50;99.90
20714;DHT22;10518;50.742;4.226;2023-08-01T00:46:33;18.50;99.90
20714;DHT22;10518;50.742;4.226;2023-08-01T00:48:59;18.40;99.90
20714;DHT22;10518;50.742;4.226;2023-08-01T00:51:26;18.40;99.90
20714;DHT22;10518;50.742;4.226;2023-08-01T00:53:52;18.30;99.90
20714;DHT22;10518;50.742;4.226;2023-08-01T00:56:18;18.30;99.90
20714;DHT22;10518;50.742;4.226;2023-08-01T00:58:44;18.20;99.90
20714;DHT22;10518;50.742;4.226;2023-08-01T01:01:09;18.20;99.90
20714;DHT22;10518;50.742;4.226;2023-08-01T01:03:36;18.10;99.90
20714;DHT22;10518;50.742;4.226;2023-08-01T01:06:12;18.10;99.90
20714;DHT22;10518;50.742;4.226;2023-08-01T01:08:41;17.90;99.90
20714;DHT22;10518;50.742;4.226;2023-08-01T01:11:07;17.90;99.90
20714;DHT22;10518;50.742;4.226;2023-08-01T01:13:33;17.80;99.90
20714;DHT22;10518;50.742;4.226;2023-08-01T01:15:58;17.90;99.90
20714;DHT22;10518;50.742;4.226;2023-08-01T01:18:24;17.90;99.90
20714;DHT22;10518;50.742;4.226;2023-08-01T01:20:50;17.80;99.90
20714;DHT22;10518;50.742;4.226;2023-08-01T01:23:16;17.80;99.90
20714;DHT22;10518;50.742;4.226;2023-08-01T01:25:43;17.80;99.90
20714;DHT22;10518;50.742;4.226;2023-08-01T01:28:10;17.70;99.90
20714;DHT22;10518;50.742;4.226;2023-08-01T01:30:35;17.70;99.90
20714;DHT22;10518;50.742;4.226;2023-08-01T01:33:02;17.70;99.90
20714;DHT22;10518;50.742;4.226;2023-08-01T01:35:29;17.70;99.90
20714;DHT22;10518;50.742;4.226;2023-08-01T01:37:55;17.70;99.90
20714;DHT22;10518;50.742;4.226;2023-08-01T01:40:20;17.70;99.90
20714;DHT22;10518;50.742;4.226;2023-08-01T01:42:47;17.70;99.90
20714;DHT22;10518;50.742;4.226;2023-08-01T01:45:14;17.70;99.90
20714;DHT22;10518;50.742;4.226;2023-08-01T01:47:40;17.70;99.90
20714;DHT22;10518;50.742;4.226;2023-08-01T01:50:06;17.70;99.90
20714;DHT22;10518;50.742;4.226;2023-08-01T01:52:31;17.60;99.90
20714;DHT22;10518;50.742;4.226;2023-08-01T01:54:58;17.60;99.90
20714;DHT22;10518;50.742;4.226;2023-08-01T01:57:24;17.60;99.90
20714;DHT22;10518;50.742;4.226;2023-08-01T01:59:49;17.60;99.90
20714;DHT22;10518;50.742;4.226;2023-08-01T02:02:15;17.60;99.90
20714;DHT22;10518;50.742;4.226;2023-08-01T02:04:40;17.60;99.90
20714;DHT22;10518;50.742;4.226;2023-08-01T02:07:06;17.50;99.90
20714;DHT22;10518;50.742;4.226;2023-08-01T02:09:31;17.50;99.90
20714;DHT22;10518;50.742;4.226;2023-08-01T02:11:57;17.60;99.90
20714;DHT22;10518;50.742;4.226;2023-08-01T02:14:22;17.70;99.90
20714;DHT22;10518;50.742;4.226;2023-08-01T02:16:48;17.60;99.90
20714;DHT22;10518;50.742;4.226;2023-08-01T02:19:14;17.70;99.90
20714;DHT22;10518;50.742;4.226;2023-08-01T02:21:39;17.70;99.90
20714;DHT22;10518;50.742;4.226;2023-08-01T02:24:05;17.60;99.90
20714;DHT22;10518;50.742;4.226;2023-08-01T02:26:30;17.70;99.90
20714;DHT22;10518;50.742;4.226;2023-08-01T02:28:56;17.60;99.90
20714;DHT22;10518;50.742;4.226;2023-08-01T02:31:22;17.60;99.90
20714;DHT22;10518;50.742;4.226;2023-08-01T02:33:47;17.50;99.90
20714;DHT22;10518;50.742;4.226;2023-08-01T02:36:13;17.60;99.90
20714;DHT22;10518;50.742;4.226;2023-08-01T02:38:39;17.60;99.90
20714;DHT22;10518;50.742;4.226;2023-08-01T02:41:04;17.50;99.90
20714;DHT22;10518;50.742;4.226;2023-08-01T02:43:30;17.60;99.90
20714;DHT22;10518;50.742;4.226;2023-08-01T02:45:55;17.60;99.90
20714;DHT22;10518;50.742;4.226;2023-08-01T02:48:21;17.70;99.90
20714;DHT22;10518;50.742;4.226;2023-08-01T02:50:46;17.80;99.90
20714;DHT22;10518;50.742;4.226;2023-08-01T02:53:12;17.80;99.90
20714;DHT22;10518;50.742;4.226;2023-08-01T02:55:37;17.80;99.90
20714;DHT22;10518;50.742;4.226;2023-08-01T02:58:03;17.80;99.90
20714;DHT22;10518;50.742;4.226;2023-08-01T03:00:29;17.80;99.90
20714;DHT22;10518;50.742;4.226;2023-08-01T03:02:56;17.70;99.90
20714;DHT22;10518;50.742;4.226;2023-08-01T03:05:22;17.70;99.90
20714;DHT22;10518;50.742;4.226;2023-08-01T03:07:47;17.70;99.90
20714;DHT22;10518;50.742;4.226;2023-08-01T03:10:13;17.70;99.90
20714;DHT22;10518;50.742;4.226;2023-08-01T03:12:39;17.60;99.90
20714;DHT22;10518;50.742;4.226;2023-08-01T03:15:06;17.60;99.90
20714;DHT22;10518;50.742;4.226;2023-08-01T03:17:33;17.70;99.90
20714;DHT22;10518;50.742;4.226;2023-08-01T03:19:59;17.60;99.90
20714;DHT22;10518;50.742;4.226;2023-08-01T03:22:24;17.60;99.90
20714;DHT22;10518;50.742;4.226;2023-08-01T03:24:50;17.60;99.90
20714;DHT22;10518;50.742;4.226;2023-08-01T03:27:16;17.70;99.90
20714;DHT22;10518;50.742;4.226;2023-08-01T03:29:41;17.90;99.90
20714;DHT22;10518;50.742;4.226;2023-08-01T03:32:07;17.90;99.90
20714;DHT22;10518;50.742;4.226;2023-08-01T03:34:32;17.90;99.90
20714;DHT22;10518;50.742;4.226;2023-08-01T03:36:58;17.80;99.90
20714;DHT22;10518;50.742;4.226;2023-08-01T03:39:23;17.70;99.90
20714;DHT22;10518;50.742;4.226;2023-08-01T03:41:49;17.70;99.90
20714;DHT22;10518;50.742;4.226;2023-08-01T03:44:14;17.70;99.90
20714;DHT22;10518;50.742;4.226;2023-08-01T03:46:42;17.70;99.90
20714;DHT22;10518;50.742;4.226;2023-08-01T03:49:08;17.80;99.90
20714;DHT22;10518;50.742;4.226;2023-08-01T03:51:34;17.80;99.90
20714;DHT22;10518;50.742;4.226;2023-08-01T03:54:00;17.80;99.90
20714;DHT22;10518;50.742;4.226;2023-08-01T03:56:25;17.70;99.90
20714;DHT22;10518;50.742;4.226;2023-08-01T03:58:52;17.60;99.90
20714;DHT22;10518;50.742;4.226;2023-08-01T04:01:17;17.60;99.90
20714;DHT22;10518;50.742;4.226;2023-08-01T04:03:43;17.60;99.90
20714;DHT22;10518;50.742;4.226;2023-08-01T04:06:08;17.60;99.90
20714;DHT22;10518;50.742;4.226;2023-08-01T04:08:34;17.50;99.90
20714;DHT22;10518;50.742;4.226;2023-08-01T04:10:59;17.40;99.90
20714;DHT22;10518;50.742;4.226;2023-08-01T04:13:25;17.40;99.90
20714;DHT22;10518;50.742;4.226;2023-08-01T04:15:51;17.50;99.90
20714;DHT22;10518;50.742;4.226;2023-08-01T04:18:16;17.40;99.90
20714;DHT22;10518;50.742;4.226;2023-08-01T04:20:42;17.40;99.90
20714;DHT22;10518;50.742;4.226;2023-08-01T04:23:07;17.40;99.90
20714;DHT22;10518;50.742;4.226;2023-08-01T04:25:33;17.50;99.90
20714;DHT22;10518;50.742;4.226;2023-08-01T04:27:58;17.50;99.90
20714;DHT22;10518;50.742;4.226;2023-08-01T04:30:24;17.40;99.90
20714;DHT22;10518;50.742;4.226;2023-08-01T04:32:49;17.30;99.90
20714;DHT22;10518;50.742;4.226;2023-08-01T04:35:15;17.30;99.90
20714;DHT22;10518;50.742;4.226;2023-08-01T04:37:41;17.40;99.90
20714;DHT22;10518;50.742;4.226;2023-08-01T04:40:07;17.30;99.90
20714;DHT22;10518;50.742;4.226;2023-08-01T04:42:33;17.40;99.90
20714;DHT22;10518;50.742;4.226;2023-08-01T04:44:58;17.40;99.90
20714;DHT22;10518;50.742;4.226;2023-08-01T04:47:24;17.40;99.90
20714;DHT22;10518;50.742;4.226;2023-08-01T04:49:49;17.40;99.90
20714;DHT22;10518;50.742;4.226;2023-08-01T04:52:15;17.40;99.90
20714;DHT22;10518;50.742;4.226;2023-08-01T04:54:40;17.50;99.90
20714;DHT22;10518;50.742;4.226;2023-08-01T04:57:06;17.60;99.90
20714;DHT22;10518;50.742;4.226;2023-08-01T04:59:31;17.40;99.90
20714;DHT22;10518;50.742;4.226;2023-08-01T05:01:57;17.50;99.90
20714;DHT22;10518;50.742;4.226;2023-08-01T05:04:24;17.70;99.90
20714;DHT22;10518;50.742;4.226;2023-08-01T05:06:50;17.80;99.90
20714;DHT22;10518;50.742;4.226;2023-08-01T05:09:16;17.80;99.90
20714;DHT22;10518;50.742;4.226;2023-08-01T05:11:41;17.90;99.90
20714;DHT22;10518;50.742;4.226;2023-08-01T05:14:07;18.00;99.90
20714;DHT22;10518;50.742;4.226;2023-08-01T05:16:32;18.00;99.90
20714;DHT22;10518;50.742;4.226;2023-08-01T05:18:58;18.00;99.90
20714;DHT22;10518;50.742;4.226;2023-08-01T05:21:23;18.10;99.90
20714;DHT22;10518;50.742;4.226;2023-08-01T05:23:49;18.00;99.90
20714;DHT22;10518;50.742;4.226;2023-08-01T05:26:14;17.90;99.90
20714;DHT22;10518;50.742;4.226;2023-08-01T05:28:40;18.00;99.90
20714;DHT22;10518;50.742;4.226;2023-08-01T05:31:05;18.00;99.90
20714;DHT22;10518;50.742;4.226;2023-08-01T05:33:31;18.00;99.90
20714;DHT22;10518;50.742;4.226;2023-08-01T05:35:57;18.00;99.90
20714;DHT22;10518;50.742;4.226;2023-08-01T05:38:22;18.00;99.90
20714;DHT22;10518;50.742;4.226;2023-08-01T05:40:48;18.00;99.90
20714;DHT22;10518;50.742;4.226;2023-08-01T05:43:13;17.90;99.90
20714;DHT22;10518;50.742;4.226;2023-08-01T05:45:39;17.80;99.90
20714;DHT22;10518;50.742;4.226;2023-08-01T05:48:05;17.80;99.90
20714;DHT22;10518;50.742;4.226;2023-08-01T05:50:30;17.80;99.90
20714;DHT22;10518;50.742;4.226;2023-08-01T05:52:56;17.80;99.90
20714;DHT22;10518;50.742;4.226;2023-08-01T05:55:22;17.80;99.90
20714;DHT22;10518;50.742;4.226;2023-08-01T05:57:47;17.90;99.90
20714;DHT22;10518;50.742;4.226;2023-08-01T06:00:15;18.00;99.90
20714;DHT22;10518;50.742;4.226;2023-08-01T06:02:41;18.00;99.90
20714;DHT22;10518;50.742;4.226;2023-08-01T06:05:06;18.00;99.90
20714;DHT22;10518;50.742;4.226;2023-08-01T06:07:32;18.10;99.90
20714;DHT22;10518;50.742;4.226;2023-08-01T06:09:57;18.20;99.90
20714;DHT22;10518;50.742;4.226;2023-08-01T06:12:23;18.20;99.90
20714;DHT22;10518;50.742;4.226;2023-08-01T06:14:49;18.30;99.90
20714;DHT22;10518;50.742;4.226;2023-08-01T06:17:15;18.50;99.90
20714;DHT22;10518;50.742;4.226;2023-08-01T06:19:41;18.50;99.90
20714;DHT22;10518;50.742;4.226;2023-08-01T06:22:06;18.50;99.90
20714;DHT22;10518;50.742;4.226;2023-08-01T06:24:32;18.50;99.90
20714;DHT22;10518;50.742;4.226;2023-08-01T06:26:57;18.50;99.90
20714;DHT22;10518;50.742;4.226;2023-08-01T06:29:23;18.50;99.90
20714;DHT22;10518;50.742;4.226;2023-08-01T06:31:50;18.50;99.90
20714;DHT22;10518;50.742;4.226;2023-08-01T06:34:15;18.60;99.90
20714;DHT22;10518;50.742;4.226;2023-08-01T06:36:41;18.60;99.90
20714;DHT22;10518;50.742;4.226;2023-08-01T06:39:07;18.70;99.90
20714;DHT22;10518;50.742;4.226;2023-08-01T06:41:32;18.70;99.90
20714;DHT22;10518;50.742;4.226;2023-08-01T06:43:58;18.60;99.90
20714;DHT22;10518;50.742;4.226;2023-08-01T06:46:23;18.70;99.90
20714;DHT22;10518;50.742;4.226;2023-08-01T06:48:49;18.80;99.90
20714;DHT22;10518;50.742;4.226;2023-08-01T06:51:15;19.20;99.90
20714;DHT22;10518;50.742;4.226;2023-08-01T06:53:40;19.80;99.90
20714;DHT22;10518;50.742;4.226;2023-08-01T06:56:06;20.20;99.90
20714;DHT22;10518;50.742;4.226;2023-08-01T06:58:32;20.90;99.90
20714;DHT22;10518;50.742;4.226;2023-08-01T07:00:58;21.30;99.90
20714;DHT22;10518;50.742;4.226;2023-08-01T07:03:23;21.40;99.90
20714;DHT22;10518;50.742;4.226;2023-08-01T07:05:49;21.00;99.90
20714;DHT22;10518;50.742;4.226;2023-08-01T07:08:14;20.60;99.90
20714;DHT22;10518;50.742;4.226;2023-08-01T07:10:40;20.50;99.90
20714;DHT22;10518;50.742;4.226;2023-08-01T07:13:05;20.60;99.90
20714;DHT22;10518;50.742;4.226;2023-08-01T07:15:32;20.70;99.90
20714;DHT22;10518;50.742;4.226;2023-08-01T07:17:58;20.60;99.90
20714;DHT22;10518;50.742;4.226;2023-08-01T07:20:23;20.50;99.90
20714;DHT22;10518;50.742;4.226;2023-08-01T07:22:49;20.40;99.90
20714;DHT22;10518;50.742;4.226;2023-08-01T07:25:14;20.40;99.90
20714;DHT22;10518;50.742;4.226;2023-08-01T07:27:41;20.60;99.90
20714;DHT22;10518;50.742;4.226;2023-08-01T07:30:07;20.80;99.90
20714;DHT22;10518;50.742;4.226;2023-08-01T07:32:34;20.70;99.90
20714;DHT22;10518;50.742;4.226;2023-08-01T07:34:59;20.50;99.90
20714;DHT22;10518;50.742;4.226;2023-08-01T07:37:25;20.30;99.90
20714;DHT22;10518;50.742;4.226;2023-08-01T07:39:54;20.20;99.90
20714;DHT22;10518;50.742;4.226;2023-08-01T07:42:19;20.20;99.90
20714;DHT22;10518;50.742;4.226;2023-08-01T07:44:45;20.40;99.90
20714;DHT22;10518;50.742;4.226;2023-08-01T07:47:10;20.40;99.90
20714;DHT22;10518;50.742;4.226;2023-08-01T07:49:36;20.40;99.90
20714;DHT22;10518;50.742;4.226;2023-08-01T07:52:02;20.40;99.90
20714;DHT22;10518;50.742;4.226;2023-08-01T07:54:27;20.30;99.90
20714;DHT22;10518;50.742;4.226;2023-08-01T07:56:53;20.30;99.90
20714;DHT22;10518;50.742;4.226;2023-08-01T07:59:18;20.30;99.90
20714;DHT22;10518;50.742;4.226;2023-08-01T08:01:44;20.40;99.90
20714;DHT22;10518;50.742;4.226;2023-08-01T08:04:09;20.80;99.90
20714;DHT22;10518;50.742;4.226;2023-08-01T08:06:36;21.30;99.90
20714;DHT22;10518;50.742;4.226;2023-08-01T08:09:02;21.70;99.90
20714;DHT22;10518;50.742;4.226;2023-08-01T08:11:28;21.90;99.90
20714;DHT22;10518;50.742;4.226;2023-08-01T08:13:54;21.50;99.90
20714;DHT22;10518;50.742;4.226;2023-08-01T08:16:19;21.10;99.90
20714;DHT22;10518;50.742;4.226;2023-08-01T08:18:45;20.60;99.90
20714;DHT22;10518;50.742;4.226;2023-08-01T08:21:10;20.10;99.90
20714;DHT22;10518;50.742;4.226;2023-08-01T08:23:36;19.80;99.90
20714;DHT22;10518;50.742;4.226;2023-08-01T08:26:01;19.70;99.90
20714;DHT22;10518;50.742;4.226;2023-08-01T08:28:29;19.80;99.90
20714;DHT22;10518;50.742;4.226;2023-08-01T08:30:56;19.80;99.90
20714;DHT22;10518;50.742;4.226;2023-08-01T08:33:21;19.90;99.90
20714;DHT22;10518;50.742;4.226;2023-08-01T08:35:48;20.10;99.90
20714;DHT22;10518;50.742;4.226;2023-08-01T08:38:13;20.30;99.90
20714;DHT22;10518;50.742;4.226;2023-08-01T08:40:41;20.40;99.90
20714;DHT22;10518;50.742;4.226;2023-08-01T08:43:09;20.40;99.90
20714;DHT22;10518;50.742;4.226;2023-08-01T08:45:35;20.40;99.90
20714;DHT22;10518;50.742;4.226;2023-08-01T08:48:02;20.40;99.90
20714;DHT22;10518;50.742;4.226;2023-08-01T08:50:33;20.50;99.90
20714;DHT22;10518;50.742;4.226;2023-08-01T08:53:00;20.60;99.90
20714;DHT22;10518;50.742;4.226;2023-08-01T08:55:27;20.70;99.90
20714;DHT22;10518;50.742;4.226;2023-08-01T08:57:54;20.90;99.90
20714;DHT22;10518;50.742;4.226;2023-08-01T09:00:20;21.00;99.90
20714;DHT22;10518;50.742;4.226;2023-08-01T09:02:47;21.00;99.90
20714;DHT22;10518;50.742;4.226;2023-08-01T09:05:12;20.70;99.90
20714;DHT22;10518;50.742;4.226;2023-08-01T09:07:41;20.70;99.90
20714;DHT22;10518;50.742;4.226;2023-08-01T09:10:07;20.90;99.90
20714;DHT22;10518;50.742;4.226;2023-08-01T09:12:36;21.00;99.90
20714;DHT22;10518;50.742;4.226;2023-08-01T09:15:02;20.90;99.90
20714;DHT22;10518;50.742;4.226;2023-08-01T09:17:27;20.90;99.90
20714;DHT22;10518;50.742;4.226;2023-08-01T09:20:04;20.90;99.90
20714;DHT22;10518;50.742;4.226;2023-08-01T09:22:42;21.10;99.90
20714;DHT22;10518;50.742;4.226;2023-08-01T09:25:08;21.40;99.90
20714;DHT22;10518;50.742;4.226;2023-08-01T09:27:33;21.50;99.90
20714;DHT22;10518;50.742;4.226;2023-08-01T09:30:10;21.40;99.90
20714;DHT22;10518;50.742;4.226;2023-08-01T09:32:37;21.30;99.90
20714;DHT22;10518;50.742;4.226;2023-08-01T09:35:03;21.00;99.90
20714;DHT22;10518;50.742;4.226;2023-08-01T09:37:42;20.70;99.90
20714;DHT22;10518;50.742;4.226;2023-08-01T09:40:08;20.60;99.90
20714;DHT22;10518;50.742;4.226;2023-08-01T09:42:41;20.50;99.90
20714;DHT22;10518;50.742;4.226;2023-08-01T09:45:17;20.50;99.90
20714;DHT22;10518;50.742;4.226;2023-08-01T09:47:43;20.60;99.90
20714;DHT22;10518;50.742;4.226;2023-08-01T09:50:10;20.70;99.90
20714;DHT22;10518;50.742;4.226;2023-08-01T09:52:37;20.90;99.90
20714;DHT22;10518;50.742;4.226;2023-08-01T09:55:03;21.00;99.90
20714;DHT22;10518;50.742;4.226;2023-08-01T09:57:30;21.10;99.90
20714;DHT22;10518;50.742;4.226;2023-08-01T09:59:59;21.10;99.90
20714;DHT22;10518;50.742;4.226;2023-08-01T10:02:26;21.00;99.90
20714;DHT22;10518;50.742;4.226;2023-08-01T10:04:57;21.10;99.90
20714;DHT22;10518;50.742;4.226;2023-08-01T10:07:25;21.40;99.90
20714;DHT22;10518;50.742;4.226;2023-08-01T10:09:57;21.60;99.90
20714;DHT22;10518;50.742;4.226;2023-08-01T10:12:26;21.80;99.90
20714;DHT22;10518;50.742;4.226;2023-08-01T10:14:52;21.80;99.90
20714;DHT22;10518;50.742;4.226;2023-08-01T10:17:19;21.70;99.90
20714;DHT22;10518;50.742;4.226;2023-08-01T10:19:47;21.80;99.90
20714;DHT22;10518;50.742;4.226;2023-08-01T10:22:14;22.00;99.90
20714;DHT22;10518;50.742;4.226;2023-08-01T10:24:40;22.10;99.90
20714;DHT22;10518;50.742;4.226;2023-08-01T10:27:20;22.10;99.90
20714;DHT22;10518;50.742;4.226;2023-08-01T10:29:59;22.10;99.90
20714;DHT22;10518;50.742;4.226;2023-08-01T10:32:33;22.10;99.90
20714;DHT22;10518;50.742;4.226;2023-08-01T10:34:59;22.10;99.90
20714;DHT22;10518;50.742;4.226;2023-08-01T10:37:25;22.20;99.90
20714;DHT22;10518;50.742;4.226;2023-08-01T10:40:01;22.20;99.90
20714;DHT22;10518;50.742;4.226;2023-08-01T10:42:37;22.30;99.90
20714;DHT22;10518;50.742;4.226;2023-08-01T10:45:04;22.40;99.90
20714;DHT22;10518;50.742;4.226;2023-08-01T10:47:29;22.50;99.90
20714;DHT22;10518;50.742;4.226;2023-08-01T10:49:57;22.40;99.90
20714;DHT22;10518;50.742;4.226;2023-08-01T10:52:23;22.50;99.90
20714;DHT22;10518;50.742;4.226;2023-08-01T10:54:59;22.50;99.90
20714;DHT22;10518;50.742;4.226;2023-08-01T10:57:27;22.60;99.90
20714;DHT22;10518;50.742;4.226;2023-08-01T10:59:55;22.60;99.90
20714;DHT22;10518;50.742;4.226;2023-08-01T11:02:25;22.60;99.90
20714;DHT22;10518;50.742;4.226;2023-08-01T11:05:00;22.70;99.90
20714;DHT22;10518;50.742;4.226;2023-08-01T11:07:26;22.60;99.90
20714;DHT22;10518;50.742;4.226;2023-08-01T11:10:13;22.40;99.90
20714;DHT22;10518;50.742;4.226;2023-08-01T11:12:43;22.10;99.90
20714;DHT22;10518;50.742;4.226;2023-08-01T11:15:12;21.90;99.90
20714;DHT22;10518;50.742;4.226;2023-08-01T11:17:39;22.10;99.90
20714;DHT22;10518;50.742;4.226;2023-08-01T11:20:06;22.30;99.90
20714;DHT22;10518;50.742;4.226;2023-08-01T11:22:34;22.60;99.90
20714;DHT22;10518;50.742;4.226;2023-08-01T11:25:00;22.90;99.90
20714;DHT22;10518;50.742;4.226;2023-08-01T11:27:26;23.00;99.90
20714;DHT22;10518;50.742;4.226;2023-08-01T11:29:53;23.10;99.90
20714;DHT22;10518;50.742;4.226;2023-08-01T11:32:19;23.20;99.90
20714;DHT22;10518;50.742;4.226;2023-08-01T11:34:46;23.30;99.90
20714;DHT22;10518;50.742;4.226;2023-08-01T11:37:17;23.30;99.90
20714;DHT22;10518;50.742;4.226;2023-08-01T11:39:44;23.30;99.90
20714;DHT22;10518;50.742;4.226;2023-08-01T11:42:16;23.40;99.90
20714;DHT22;10518;50.742;4.226;2023-08-01T11:44:43;23.30;99.90
20714;DHT22;10518;50.742;4.226;2023-08-01T11:47:15;23.00;99.90
20714;DHT22;10518;50.742;4.226;2023-08-01T11:49:49;22.70;99.90
20714;DHT22;10518;50.742;4.226;2023-08-01T11:52:25;22.60;99.90
20714;DHT22;10518;50.742;4.226;2023-08-01T11:54:51;22.80;99.90
20714;DHT22;10518;50.742;4.226;2023-08-01T11:57:17;22.90;99.90
20714;DHT22;10518;50.742;4.226;2023-08-01T11:59:51;23.00;99.90
20714;DHT22;10518;50.742;4.226;2023-08-01T12:02:28;23.20;99.90
20714;DHT22;10518;50.742;4.226;2023-08-01T12:04:57;23.20;99.90
20714;DHT22;10518;50.742;4.226;2023-08-01T12:07:25;23.20;99.90
20714;DHT22;10518;50.742;4.226;2023-08-01T12:10:01;23.30;99.90
20714;DHT22;10518;50.742;4.226;2023-08-01T12:12:27;23.20;99.90
20714;DHT22;10518;50.742;4.226;2023-08-01T12:14:53;23.00;99.90
20714;DHT22;10518;50.742;4.226;2023-08-01T12:17:19;22.80;99.90
20714;DHT22;10518;50.742;4.226;2023-08-01T12:19:45;22.80;99.90
20714;DHT22;10518;50.742;4.226;2023-08-01T12:22:11;22.60;99.90
20714;DHT22;10518;50.742;4.226;2023-08-01T12:24:37;22.70;99.90
20714;DHT22;10518;50.742;4.226;2023-08-01T12:27:07;22.90;99.90
20714;DHT22;10518;50.742;4.226;2023-08-01T12:29:33;23.20;99.90
20714;DHT22;10518;50.742;4.226;2023-08-01T12:31:59;23.40;99.90
20714;DHT22;10518;50.742;4.226;2023-08-01T12:34:24;23.50;99.90
20714;DHT22;10518;50.742;4.226;2023-08-01T12:36:50;23.50;99.90
20714;DHT22;10518;50.742;4.226;2023-08-01T12:39:15;23.50;99.90
20714;DHT22;10518;50.742;4.226;2023-08-01T12:41:41;23.50;99.90
20714;DHT22;10518;50.742;4.226;2023-08-01T12:44:06;23.70;99.90
20714;DHT22;10518;50.742;4.226;2023-08-01T12:46:32;23.90;99.90
20714;DHT22;10518;50.742;4.226;2023-08-01T12:48:58;23.90;99.90
20714;DHT22;10518;50.742;4.226;2023-08-01T12:51:23;23.90;99.90
20714;DHT22;10518;50.742;4.226;2023-08-01T12:53:49;24.00;99.90
20714;DHT22;10518;50.742;4.226;2023-08-01T12:56:14;24.10;99.90
20714;DHT22;10518;50.742;4.226;2023-08-01T12:58:40;24.20;99.90
20714;DHT22;10518;50.742;4.226;2023-08-01T13:01:06;24.20;99.90
20714;DHT22;10518;50.742;4.226;2023-08-01T13:03:32;24.10;99.90
20714;DHT22;10518;50.742;4.226;2023-08-01T13:05:58;24.00;99.90
20714;DHT22;10518;50.742;4.226;2023-08-01T13:08:23;23.80;99.90
20714;DHT22;10518;50.742;4.226;2023-08-01T13:10:49;23.70;99.90
20714;DHT22;10518;50.742;4.226;2023-08-01T13:13:16;23.60;99.90
20714;DHT22;10518;50.742;4.226;2023-08-01T13:15:41;23.70;99.90
20714;DHT22;10518;50.742;4.226;2023-08-01T13:18:07;23.80;99.90
20714;DHT22;10518;50.742;4.226;2023-08-01T13:20:33;23.80;99.90
20714;DHT22;10518;50.742;4.226;2023-08-01T13:22:58;23.70;99.90
20714;DHT22;10518;50.742;4.226;2023-08-01T13:25:24;23.60;99.90
20714;DHT22;10518;50.742;4.226;2023-08-01T13:27:50;23.70;99.90
20714;DHT22;10518;50.742;4.226;2023-08-01T13:30:15;23.70;99.90
20714;DHT22;10518;50.742;4.226;2023-08-01T13:32:44;23.50;99.90
20714;DHT22;10518;50.742;4.226;2023-08-01T13:35:10;23.40;99.90
20714;DHT22;10518;50.742;4.226;2023-08-01T13:37:36;23.40;99.90
20714;DHT22;10518;50.742;4.226;2023-08-01T13:40:02;23.30;99.90
20714;DHT22;10518;50.742;4.226;2023-08-01T13:42:28;23.30;99.90
20714;DHT22;10518;50.742;4.226;2023-08-01T13:44:54;23.30;99.90
20714;DHT22;10518;50.742;4.226;2023-08-01T13:47:20;23.40;99.90
20714;DHT22;10518;50.742;4.226;2023-08-01T13:49:46;23.50;99.90
20714;DHT22;10518;50.742;4.226;2023-08-01T13:52:11;23.40;99.90
20714;DHT22;10518;50.742;4.226;2023-08-01T13:54:37;23.50;99.90
20714;DHT22;10518;50.742;4.226;2023-08-01T13:57:02;23.50;99.90
20714;DHT22;10518;50.742;4.226;2023-08-01T13:59:28;23.50;99.90
20714;DHT22;10518;50.742;4.226;2023-08-01T14:01:54;23.40;99.90
20714;DHT22;10518;50.742;4.226;2023-08-01T14:04:20;23.30;99.90
20714;DHT22;10518;50.742;4.226;2023-08-01T14:06:46;23.30;99.90
20714;DHT22;10518;50.742;4.226;2023-08-01T14:09:11;23.20;99.90
20714;DHT22;10518;50.742;4.226;2023-08-01T14:11:38;23.10;99.90
20714;DHT22;10518;50.742;4.226;2023-08-01T14:14:04;23.20;99.90
20714;DHT22;10518;50.742;4.226;2023-08-01T14:16:30;23.30;99.90
20714;DHT22;10518;50.742;4.226;2023-08-01T14:18:56;23.30;99.90
20714;DHT22;10518;50.742;4.226;2023-08-01T14:21:22;23.40;99.90
20714;DHT22;10518;50.742;4.226;2023-08-01T14:23:47;23.50;99.90
20714;DHT22;10518;50.742;4.226;2023-08-01T14:26:13;23.40;99.90
20714;DHT22;10518;50.742;4.226;2023-08-01T14:28:39;23.10;99.90
20714;DHT22;10518;50.742;4.226;2023-08-01T14:31:05;22.90;99.90
20714;DHT22;10518;50.742;4.226;2023-08-01T14:33:31;22.70;99.90
20714;DHT22;10518;50.742;4.226;2023-08-01T14:35:57;22.50;99.90
20714;DHT22;10518;50.742;4.226;2023-08-01T14:38:23;22.40;99.90
20714;DHT22;10518;50.742;4.226;2023-08-01T14:40:49;22.30;99.90
20714;DHT22;10518;50.742;4.226;2023-08-01T14:43:14;22.20;99.90
20714;DHT22;10518;50.742;4.226;2023-08-01T14:45:40;22.20;99.90
20714;DHT22;10518;50.742;4.226;2023-08-01T14:48:07;22.00;99.90
20714;DHT22;10518;50.742;4.226;2023-08-01T14:50:33;21.90;99.90
20714;DHT22;10518;50.742;4.226;2023-08-01T14:52:59;21.80;99.90
20714;DHT22;10518;50.742;4.226;2023-08-01T14:55:25;21.70;99.90
20714;DHT22;10518;50.742;4.226;2023-08-01T14:57:50;21.70;99.90
20714;DHT22;10518;50.742;4.226;2023-08-01T15:00:16;21.60;99.90
20714;DHT22;10518;50.742;4.226;2023-08-01T15:02:42;21.50;99.90
20714;DHT22;10518;50.742;4.226;2023-08-01T15:05:07;21.50;99.90
20714;DHT22;10518;50.742;4.226;2023-08-01T15:07:33;21.50;99.90
20714;DHT22;10518;50.742;4.226;2023-08-01T15:09:59;21.60;99.90
20714;DHT22;10518;50.742;4.226;2023-08-01T15:12:26;21.60;99.90
20714;DHT22;10518;50.742;4.226;2023-08-01T15:14:52;21.70;99.90
20714;DHT22;10518;50.742;4.226;2023-08-01T15:17:18;21.70;99.90
20714;DHT22;10518;50.742;4.226;2023-08-01T15:19:44;21.70;99.90
20714;DHT22;10518;50.742;4.226;2023-08-01T15:22:10;21.80;99.90
20714;DHT22;10518;50.742;4.226;2023-08-01T15:24:35;21.80;99.90